sensor_id;sensor_type;location;lat;lon;timestamp;P1;durP1;ratioP1;P2;durP2;ratioP2
66129;SDS011;52930;51.464;11.764;2022-10-13T00:00:56;21.13;;;9.55;;
66129;SDS011;52930;51.464;11.764;2022-10-13T00:03:22;22.70;;;10.23;;
66129;SDS011;52930;51.464;11.764;2022-10-13T00:05:48;20.37;;;9.60;;
66129;SDS011;52930;51.464;11.764;2022-10-13T00:08:15;21.30;;;9.73;;
66129;SDS011;52930;51.464;11.764;2022-10-13T00:10:43;27.60;;;9.70;;
66129;SDS011;52930;51.464;11.764;2022-10-13T00:13:09;29.20;;;10.30;;
66129;SDS011;52930;51.464;11.764;2022-10-13T00:15:41;24.50;;;10.77;;
66129;SDS011;52930;51.464;11.764;2022-10-13T00:18:08;27.90;;;10.93;;
66129;SDS011;52930;51.464;11.764;2022-10-13T00:20:34;27.85;;;11.63;;
66129;SDS011;52930;51.464;11.764;2022-10-13T00:22:59;27.53;;;12.13;;
66129;SDS011;52930;51.464;11.764;2022-10-13T00:25:25;27.33;;;11.83;;
66129;SDS011;52930;51.464;11.764;2022-10-13T00:27:50;25.35;;;11.55;;
66129;SDS011;52930;51.464;11.764;2022-10-13T00:30:16;27.23;;;11.43;;
66129;SDS011;52930;51.464;11.764;2022-10-13T00:32:41;29.00;;;11.50;;
66129;SDS011;52930;51.464;11.764;2022-10-13T00:35:07;26.27;;;11.40;;
66129;SDS011;52930;51.464;11.764;2022-10-13T00:37:33;23.90;;;11.40;;
66129;SDS011;52930;51.464;11.764;2022-10-13T00:39:58;26.67;;;11.77;;
66129;SDS011;52930;51.464;11.764;2022-10-13T00:42:24;27.97;;;12.10;;
66129;SDS011;52930;51.464;11.764;2022-10-13T00:44:58;23.55;;;11.88;;
66129;SDS011;52930;51.464;11.764;2022-10-13T00:47:44;26.40;;;11.43;;
66129;SDS011;52930;51.464;11.764;2022-10-13T00:50:13;26.45;;;11.55;;
66129;SDS011;52930;51.464;11.764;2022-10-13T00:52:41;31.65;;;12.15;;
66129;SDS011;52930;51.464;11.764;2022-10-13T00:55:07;24.90;;;11.67;;
66129;SDS011;52930;51.464;11.764;2022-10-13T00:57:34;25.73;;;11.65;;
66129;SDS011;52930;51.464;11.764;2022-10-13T01:00:00;27.02;;;12.02;;
66129;SDS011;52930;51.464;11.764;2022-10-13T01:02:28;26.58;;;12.20;;
66129;SDS011;52930;51.464;11.764;2022-10-13T01:04:56;27.50;;;11.05;;
66129;SDS011;52930;51.464;11.764;2022-10-13T01:07:22;26.47;;;10.93;;
66129;SDS011;52930;51.464;11.764;2022-10-13T01:09:48;24.95;;;11.40;;
66129;SDS011;52930;51.464;11.764;2022-10-13T01:15:11;25.85;;;11.68;;
66129;SDS011;52930;51.464;11.764;2022-10-13T01:20:14;25.35;;;12.45;;
66129;SDS011;52930;51.464;11.764;2022-10-13T01:26:44;25.95;;;11.02;;
66129;SDS011;52930;51.464;11.764;2022-10-13T01:34:05;31.90;;;11.68;;
66129;SDS011;52930;51.464;11.764;2022-10-13T01:39:15;28.23;;;11.50;;
66129;SDS011;52930;51.464;11.764;2022-10-13T01:41:56;30.97;;;12.23;;
66129;SDS011;52930;51.464;11.764;2022-10-13T01:44:31;37.92;;;12.80;;
66129;SDS011;52930;51.464;11.764;2022-10-13T01:46:58;27.65;;;12.35;;
66129;SDS011;52930;51.464;11.764;2022-10-13T01:49:26;23.60;;;11.38;;
66129;SDS011;52930;51.464;11.764;2022-10-13T01:51:53;28.65;;;12.88;;
66129;SDS011;52930;51.464;11.764;2022-10-13T01:54:21;28.17;;;12.57;;
66129;SDS011;52930;51.464;11.764;2022-10-13T01:56:50;29.33;;;12.63;;
66129;SDS011;52930;51.464;11.764;2022-10-13T01:59:19;25.20;;;12.00;;
66129;SDS011;52930;51.464;11.764;2022-10-13T02:15:16;28.90;;;11.35;;
66129;SDS011;52930;51.464;11.764;2022-10-13T02:17:44;23.95;;;11.38;;
66129;SDS011;52930;51.464;11.764;2022-10-13T02:20:10;21.73;;;11.20;;
66129;SDS011;52930;51.464;11.764;2022-10-13T02:22:37;25.70;;;11.38;;
66129;SDS011;52930;51.464;11.764;2022-10-13T02:25:06;21.63;;;10.50;;
66129;SDS011;52930;51.464;11.764;2022-10-13T02:27:32;23.38;;;10.85;;
66129;SDS011;52930;51.464;11.764;2022-10-13T02:29:57;23.63;;;10.57;;
66129;SDS011;52930;51.464;11.764;2022-10-13T02:32:22;23.33;;;11.47;;
66129;SDS011;52930;51.464;11.764;2022-10-13T02:34:48;25.38;;;11.60;;
66129;SDS011;52930;51.464;11.764;2022-10-13T02:37:14;24.95;;;10.63;;
66129;SDS011;52930;51.464;11.764;2022-10-13T02:39:39;23.10;;;11.30;;
66129;SDS011;52930;51.464;11.764;2022-10-13T02:42:04;26.80;;;11.63;;
66129;SDS011;52930;51.464;11.764;2022-10-13T02:44:30;22.38;;;10.73;;
66129;SDS011;52930;51.464;11.764;2022-10-13T02:46:55;22.20;;;10.53;;
66129;SDS011;52930;51.464;11.764;2022-10-13T02:49:21;25.87;;;10.53;;
66129;SDS011;52930;51.464;11.764;2022-10-13T02:51:46;26.60;;;10.45;;
66129;SDS011;52930;51.464;11.764;2022-10-13T02:54:12;23.52;;;9.88;;
66129;SDS011;52930;51.464;11.764;2022-10-13T02:56:37;23.17;;;10.13;;
66129;SDS011;52930;51.464;11.764;2022-10-13T02:59:02;29.03;;;11.60;;
66129;SDS011;52930;51.464;11.764;2022-10-13T03:01:28;27.20;;;11.57;;
66129;SDS011;52930;51.464;11.764;2022-10-13T03:03:53;24.13;;;10.73;;
66129;SDS011;52930;51.464;11.764;2022-10-13T03:06:19;28.70;;;12.10;;
66129;SDS011;52930;51.464;11.764;2022-10-13T03:08:44;25.05;;;11.20;;
66129;SDS011;52930;51.464;11.764;2022-10-13T03:11:09;25.67;;;10.60;;
66129;SDS011;52930;51.464;11.764;2022-10-13T03:13:35;22.80;;;10.77;;
66129;SDS011;52930;51.464;11.764;2022-10-13T03:16:01;28.08;;;10.68;;
66129;SDS011;52930;51.464;11.764;2022-10-13T03:18:27;22.77;;;10.63;;
66129;SDS011;52930;51.464;11.764;2022-10-13T03:20:56;27.30;;;10.93;;
66129;SDS011;52930;51.464;11.764;2022-10-13T03:23:23;25.60;;;10.90;;
66129;SDS011;52930;51.464;11.764;2022-10-13T03:25:48;24.15;;;10.18;;
66129;SDS011;52930;51.464;11.764;2022-10-13T03:28:14;23.30;;;11.17;;
66129;SDS011;52930;51.464;11.764;2022-10-13T03:30:39;25.23;;;11.03;;
66129;SDS011;52930;51.464;11.764;2022-10-13T03:33:04;23.90;;;10.13;;
66129;SDS011;52930;51.464;11.764;2022-10-13T03:35:30;38.87;;;11.30;;
66129;SDS011;52930;51.464;11.764;2022-10-13T03:37:55;24.70;;;10.40;;
66129;SDS011;52930;51.464;11.764;2022-10-13T03:40:21;25.23;;;10.17;;
66129;SDS011;52930;51.464;11.764;2022-10-13T03:42:46;25.13;;;10.63;;
66129;SDS011;52930;51.464;11.764;2022-10-13T03:45:11;21.90;;;10.53;;
66129;SDS011;52930;51.464;11.764;2022-10-13T03:47:37;22.80;;;10.23;;
66129;SDS011;52930;51.464;11.764;2022-10-13T03:50:03;27.63;;;11.40;;
66129;SDS011;52930;51.464;11.764;2022-10-13T03:52:29;25.40;;;11.07;;
66129;SDS011;52930;51.464;11.764;2022-10-13T03:54:55;24.77;;;10.37;;
66129;SDS011;52930;51.464;11.764;2022-10-13T03:57:20;28.50;;;11.10;;
66129;SDS011;52930;51.464;11.764;2022-10-13T03:59:45;26.13;;;10.70;;
66129;SDS011;52930;51.464;11.764;2022-10-13T04:02:11;26.00;;;11.17;;
66129;SDS011;52930;51.464;11.764;2022-10-13T04:04:36;24.05;;;9.82;;
66129;SDS011;52930;51.464;11.764;2022-10-13T04:07:02;23.00;;;9.93;;
66129;SDS011;52930;51.464;11.764;2022-10-13T04:09:27;25.40;;;10.27;;
66129;SDS011;52930;51.464;11.764;2022-10-13T04:11:53;27.10;;;10.70;;
66129;SDS011;52930;51.464;11.764;2022-10-13T04:14:18;22.57;;;10.40;;
66129;SDS011;52930;51.464;11.764;2022-10-13T04:16:44;23.90;;;11.17;;
66129;SDS011;52930;51.464;11.764;2022-10-13T04:19:11;26.42;;;10.95;;
66129;SDS011;52930;51.464;11.764;2022-10-13T04:21:37;27.52;;;10.45;;
66129;SDS011;52930;51.464;11.764;2022-10-13T04:24:03;24.77;;;10.57;;
66129;SDS011;52930;51.464;11.764;2022-10-13T04:26:31;27.25;;;10.00;;
66129;SDS011;52930;51.464;11.764;2022-10-13T04:28:58;27.05;;;10.27;;
66129;SDS011;52930;51.464;11.764;2022-10-13T04:31:24;25.25;;;10.57;;
66129;SDS011;52930;51.464;11.764;2022-10-13T04:33:50;23.13;;;9.67;;
66129;SDS011;52930;51.464;11.764;2022-10-13T04:36:15;21.55;;;9.10;;
66129;SDS011;52930;51.464;11.764;2022-10-13T04:38:41;22.00;;;9.07;;
66129;SDS011;52930;51.464;11.764;2022-10-13T04:41:08;28.77;;;10.38;;
66129;SDS011;52930;51.464;11.764;2022-10-13T04:43:34;25.83;;;10.10;;
66129;SDS011;52930;51.464;11.764;2022-10-13T04:46:03;23.33;;;10.27;;
66129;SDS011;52930;51.464;11.764;2022-10-13T04:48:30;23.85;;;9.82;;
66129;SDS011;52930;51.464;11.764;2022-10-13T04:51:02;28.23;;;10.68;;
66129;SDS011;52930;51.464;11.764;2022-10-13T04:53:32;31.67;;;9.93;;
66129;SDS011;52930;51.464;11.764;2022-10-13T04:56:04;29.42;;;10.98;;
66129;SDS011;52930;51.464;11.764;2022-10-13T04:58:32;24.25;;;9.70;;
66129;SDS011;52930;51.464;11.764;2022-10-13T05:00:58;22.70;;;9.50;;
66129;SDS011;52930;51.464;11.764;2022-10-13T05:03:23;24.00;;;10.73;;
66129;SDS011;52930;51.464;11.764;2022-10-13T05:05:49;24.80;;;9.82;;
66129;SDS011;52930;51.464;11.764;2022-10-13T05:08:14;25.58;;;10.93;;
66129;SDS011;52930;51.464;11.764;2022-10-13T05:10:40;26.58;;;9.75;;
66129;SDS011;52930;51.464;11.764;2022-10-13T05:13:05;28.90;;;10.57;;
66129;SDS011;52930;51.464;11.764;2022-10-13T05:15:31;24.87;;;10.00;;
66129;SDS011;52930;51.464;11.764;2022-10-13T05:17:57;25.77;;;9.77;;
66129;SDS011;52930;51.464;11.764;2022-10-13T05:20:23;25.25;;;9.82;;
66129;SDS011;52930;51.464;11.764;2022-10-13T05:22:48;27.23;;;9.77;;
66129;SDS011;52930;51.464;11.764;2022-10-13T05:25:14;22.80;;;8.73;;
66129;SDS011;52930;51.464;11.764;2022-10-13T05:27:39;23.27;;;8.93;;
66129;SDS011;52930;51.464;11.764;2022-10-13T05:30:05;24.88;;;9.15;;
66129;SDS011;52930;51.464;11.764;2022-10-13T05:32:33;25.95;;;9.45;;
66129;SDS011;52930;51.464;11.764;2022-10-13T05:34:59;21.70;;;9.57;;
66129;SDS011;52930;51.464;11.764;2022-10-13T05:37:24;22.77;;;9.20;;
66129;SDS011;52930;51.464;11.764;2022-10-13T05:39:50;21.27;;;8.82;;
66129;SDS011;52930;51.464;11.764;2022-10-13T05:42:15;26.50;;;9.95;;
66129;SDS011;52930;51.464;11.764;2022-10-13T05:44:41;23.47;;;10.50;;
66129;SDS011;52930;51.464;11.764;2022-10-13T05:47:06;27.60;;;10.82;;
66129;SDS011;52930;51.464;11.764;2022-10-13T05:49:32;29.53;;;10.67;;
66129;SDS011;52930;51.464;11.764;2022-10-13T05:52:00;26.70;;;10.38;;
66129;SDS011;52930;51.464;11.764;2022-10-13T05:55:10;27.80;;;10.57;;
66129;SDS011;52930;51.464;11.764;2022-10-13T05:57:27;33.70;;;10.63;;
66129;SDS011;52930;51.464;11.764;2022-10-13T05:59:56;25.67;;;10.93;;
66129;SDS011;52930;51.464;11.764;2022-10-13T06:02:23;26.15;;;10.38;;
66129;SDS011;52930;51.464;11.764;2022-10-13T06:04:51;27.80;;;10.50;;
66129;SDS011;52930;51.464;11.764;2022-10-13T06:07:18;23.57;;;9.87;;
66129;SDS011;52930;51.464;11.764;2022-10-13T06:09:44;25.85;;;10.25;;
66129;SDS011;52930;51.464;11.764;2022-10-13T06:12:09;26.70;;;10.48;;
66129;SDS011;52930;51.464;11.764;2022-10-13T06:14:35;27.10;;;9.82;;
66129;SDS011;52930;51.464;11.764;2022-10-13T06:17:01;25.40;;;9.98;;
66129;SDS011;52930;51.464;11.764;2022-10-13T06:19:26;23.52;;;9.88;;
66129;SDS011;52930;51.464;11.764;2022-10-13T06:21:51;29.30;;;9.80;;
66129;SDS011;52930;51.464;11.764;2022-10-13T06:24:17;27.77;;;10.10;;
66129;SDS011;52930;51.464;11.764;2022-10-13T06:26:42;27.37;;;9.50;;
66129;SDS011;52930;51.464;11.764;2022-10-13T06:29:08;24.30;;;9.85;;
66129;SDS011;52930;51.464;11.764;2022-10-13T06:31:33;24.25;;;9.50;;
66129;SDS011;52930;51.464;11.764;2022-10-13T06:33:59;23.10;;;9.57;;
66129;SDS011;52930;51.464;11.764;2022-10-13T06:36:24;30.93;;;10.07;;
66129;SDS011;52930;51.464;11.764;2022-10-13T06:38:50;25.85;;;9.65;;
66129;SDS011;52930;51.464;11.764;2022-10-13T06:41:15;24.87;;;9.80;;
66129;SDS011;52930;51.464;11.764;2022-10-13T06:43:41;21.83;;;9.77;;
66129;SDS011;52930;51.464;11.764;2022-10-13T06:46:06;23.90;;;9.63;;
66129;SDS011;52930;51.464;11.764;2022-10-13T06:48:32;28.20;;;9.98;;
66129;SDS011;52930;51.464;11.764;2022-10-13T06:51:02;25.23;;;10.03;;
66129;SDS011;52930;51.464;11.764;2022-10-13T06:53:32;26.00;;;8.90;;
66129;SDS011;52930;51.464;11.764;2022-10-13T06:55:58;26.20;;;9.57;;
66129;SDS011;52930;51.464;11.764;2022-10-13T06:58:24;21.55;;;9.25;;
66129;SDS011;52930;51.464;11.764;2022-10-13T07:00:50;23.30;;;10.27;;
66129;SDS011;52930;51.464;11.764;2022-10-13T07:03:16;30.93;;;9.43;;
66129;SDS011;52930;51.464;11.764;2022-10-13T07:05:41;26.42;;;9.20;;
66129;SDS011;52930;51.464;11.764;2022-10-13T07:08:06;29.73;;;10.17;;
66129;SDS011;52930;51.464;11.764;2022-10-13T07:10:32;22.23;;;9.87;;
66129;SDS011;52930;51.464;11.764;2022-10-13T07:12:57;26.53;;;9.03;;
66129;SDS011;52930;51.464;11.764;2022-10-13T07:15:23;25.70;;;9.60;;
66129;SDS011;52930;51.464;11.764;2022-10-13T07:17:49;21.48;;;8.32;;
66129;SDS011;52930;51.464;11.764;2022-10-13T07:20:20;22.00;;;9.60;;
66129;SDS011;52930;51.464;11.764;2022-10-13T07:22:47;20.58;;;8.85;;
66129;SDS011;52930;51.464;11.764;2022-10-13T07:25:14;24.87;;;9.40;;
66129;SDS011;52930;51.464;11.764;2022-10-13T07:27:39;20.77;;;8.85;;
66129;SDS011;52930;51.464;11.764;2022-10-13T07:30:06;24.05;;;9.02;;
66129;SDS011;52930;51.464;11.764;2022-10-13T07:32:33;24.83;;;9.77;;
66129;SDS011;52930;51.464;11.764;2022-10-13T07:34:59;26.08;;;9.27;;
66129;SDS011;52930;51.464;11.764;2022-10-13T07:37:24;28.23;;;9.33;;
66129;SDS011;52930;51.464;11.764;2022-10-13T07:39:50;21.95;;;8.63;;
66129;SDS011;52930;51.464;11.764;2022-10-13T07:42:16;24.27;;;9.10;;
66129;SDS011;52930;51.464;11.764;2022-10-13T07:44:41;27.25;;;9.77;;
66129;SDS011;52930;51.464;11.764;2022-10-13T07:47:07;21.90;;;9.37;;
66129;SDS011;52930;51.464;11.764;2022-10-13T07:49:33;24.90;;;9.40;;
66129;SDS011;52930;51.464;11.764;2022-10-13T07:51:58;19.77;;;9.40;;
66129;SDS011;52930;51.464;11.764;2022-10-13T07:54:23;26.67;;;10.40;;
66129;SDS011;52930;51.464;11.764;2022-10-13T07:56:52;23.70;;;8.93;;
66129;SDS011;52930;51.464;11.764;2022-10-13T07:59:18;23.02;;;9.00;;
66129;SDS011;52930;51.464;11.764;2022-10-13T08:01:44;18.50;;;9.30;;
66129;SDS011;52930;51.464;11.764;2022-10-13T08:04:09;24.13;;;9.77;;
66129;SDS011;52930;51.464;11.764;2022-10-13T08:06:35;19.58;;;8.60;;
66129;SDS011;52930;51.464;11.764;2022-10-13T08:09:00;24.30;;;9.27;;
66129;SDS011;52930;51.464;11.764;2022-10-13T08:11:27;24.02;;;9.23;;
66129;SDS011;52930;51.464;11.764;2022-10-13T08:13:53;22.33;;;9.13;;
66129;SDS011;52930;51.464;11.764;2022-10-13T08:16:20;21.95;;;9.20;;
66129;SDS011;52930;51.464;11.764;2022-10-13T08:18:47;27.13;;;9.77;;
66129;SDS011;52930;51.464;11.764;2022-10-13T08:21:14;25.83;;;9.90;;
66129;SDS011;52930;51.464;11.764;2022-10-13T08:23:41;20.23;;;9.30;;
66129;SDS011;52930;51.464;11.764;2022-10-13T08:26:12;22.17;;;10.15;;
66129;SDS011;52930;51.464;11.764;2022-10-13T08:28:39;20.70;;;9.30;;
66129;SDS011;52930;51.464;11.764;2022-10-13T08:31:05;20.90;;;9.03;;
66129;SDS011;52930;51.464;11.764;2022-10-13T08:33:30;21.33;;;9.23;;
66129;SDS011;52930;51.464;11.764;2022-10-13T08:35:55;20.77;;;9.90;;
66129;SDS011;52930;51.464;11.764;2022-10-13T08:38:21;23.73;;;10.37;;
66129;SDS011;52930;51.464;11.764;2022-10-13T08:40:49;23.67;;;10.55;;
66129;SDS011;52930;51.464;11.764;2022-10-13T08:43:16;21.10;;;10.20;;
66129;SDS011;52930;51.464;11.764;2022-10-13T08:45:43;23.00;;;10.40;;
66129;SDS011;52930;51.464;11.764;2022-10-13T08:48:10;23.30;;;10.63;;
66129;SDS011;52930;51.464;11.764;2022-10-13T08:50:45;25.13;;;10.90;;
66129;SDS011;52930;51.464;11.764;2022-10-13T08:55:58;24.10;;;9.57;;
66129;SDS011;52930;51.464;11.764;2022-10-13T08:58:29;21.95;;;10.25;;
66129;SDS011;52930;51.464;11.764;2022-10-13T09:00:59;21.88;;;9.85;;
66129;SDS011;52930;51.464;11.764;2022-10-13T09:03:54;23.13;;;9.63;;
66129;SDS011;52930;51.464;11.764;2022-10-13T09:06:29;24.90;;;9.70;;
66129;SDS011;52930;51.464;11.764;2022-10-13T09:09:00;27.95;;;10.20;;
66129;SDS011;52930;51.464;11.764;2022-10-13T09:11:30;25.42;;;10.32;;
66129;SDS011;52930;51.464;11.764;2022-10-13T09:14:00;23.83;;;10.00;;
66129;SDS011;52930;51.464;11.764;2022-10-13T09:16:28;29.85;;;10.68;;
66129;SDS011;52930;51.464;11.764;2022-10-13T09:19:56;26.70;;;10.13;;
66129;SDS011;52930;51.464;11.764;2022-10-13T09:22:13;24.58;;;10.43;;
66129;SDS011;52930;51.464;11.764;2022-10-13T09:25:37;25.23;;;11.05;;
66129;SDS011;52930;51.464;11.764;2022-10-13T09:32:46;24.65;;;10.48;;
66129;SDS011;52930;51.464;11.764;2022-10-13T09:35:19;24.37;;;10.93;;
66129;SDS011;52930;51.464;11.764;2022-10-13T09:37:45;26.83;;;10.80;;
66129;SDS011;52930;51.464;11.764;2022-10-13T09:40:26;24.73;;;10.25;;
66129;SDS011;52930;51.464;11.764;2022-10-13T09:42:55;23.25;;;10.23;;
66129;SDS011;52930;51.464;11.764;2022-10-13T09:45:20;29.57;;;10.03;;
66129;SDS011;52930;51.464;11.764;2022-10-13T09:47:52;25.13;;;9.52;;
66129;SDS011;52930;51.464;11.764;2022-10-13T09:50:21;21.77;;;9.60;;
66129;SDS011;52930;51.464;11.764;2022-10-13T09:53:14;20.85;;;10.48;;
66129;SDS011;52930;51.464;11.764;2022-10-13T09:55:49;23.23;;;9.67;;
66129;SDS011;52930;51.464;11.764;2022-10-13T09:58:41;23.17;;;10.02;;
66129;SDS011;52930;51.464;11.764;2022-10-13T10:01:16;21.58;;;9.13;;
66129;SDS011;52930;51.464;11.764;2022-10-13T10:03:44;26.10;;;9.52;;
66129;SDS011;52930;51.464;11.764;2022-10-13T10:06:11;21.98;;;9.38;;
66129;SDS011;52930;51.464;11.764;2022-10-13T10:08:56;23.77;;;9.37;;
66129;SDS011;52930;51.464;11.764;2022-10-13T10:11:25;19.65;;;8.98;;
66129;SDS011;52930;51.464;11.764;2022-10-13T10:13:54;36.47;;;11.05;;
66129;SDS011;52930;51.464;11.764;2022-10-13T10:19:01;26.17;;;9.60;;
66129;SDS011;52930;51.464;11.764;2022-10-13T10:24:18;27.92;;;10.95;;
66129;SDS011;52930;51.464;11.764;2022-10-13T10:27:02;19.17;;;9.20;;
66129;SDS011;52930;51.464;11.764;2022-10-13T10:32:24;26.30;;;10.15;;
66129;SDS011;52930;51.464;11.764;2022-10-13T10:40:35;24.40;;;9.63;;
66129;SDS011;52930;51.464;11.764;2022-10-13T10:43:18;21.98;;;9.25;;
66129;SDS011;52930;51.464;11.764;2022-10-13T10:46:12;23.88;;;9.95;;
66129;SDS011;52930;51.464;11.764;2022-10-13T10:48:42;24.15;;;10.40;;
66129;SDS011;52930;51.464;11.764;2022-10-13T10:51:10;24.45;;;10.18;;
66129;SDS011;52930;51.464;11.764;2022-10-13T11:04:42;17.48;;;7.90;;
66129;SDS011;52930;51.464;11.764;2022-10-13T11:07:13;16.20;;;6.87;;
66129;SDS011;52930;51.464;11.764;2022-10-13T11:15:07;14.20;;;6.70;;
66129;SDS011;52930;51.464;11.764;2022-10-13T11:17:35;16.02;;;6.40;;
66129;SDS011;52930;51.464;11.764;2022-10-13T11:20:47;17.27;;;6.32;;
66129;SDS011;52930;51.464;11.764;2022-10-13T11:28:48;15.30;;;5.73;;
66129;SDS011;52930;51.464;11.764;2022-10-13T11:52:38;14.05;;;6.00;;
66129;SDS011;52930;51.464;11.764;2022-10-13T11:55:19;14.52;;;6.38;;
66129;SDS011;52930;51.464;11.764;2022-10-13T12:00:48;16.37;;;5.97;;
66129;SDS011;52930;51.464;11.764;2022-10-13T12:03:25;13.13;;;5.60;;
66129;SDS011;52930;51.464;11.764;2022-10-13T12:08:32;12.52;;;6.00;;
66129;SDS011;52930;51.464;11.764;2022-10-13T12:10:59;12.43;;;5.22;;
66129;SDS011;52930;51.464;11.764;2022-10-13T12:13:27;14.40;;;4.73;;
66129;SDS011;52930;51.464;11.764;2022-10-13T12:16:01;17.20;;;5.00;;
66129;SDS011;52930;51.464;11.764;2022-10-13T12:18:34;14.90;;;4.20;;
66129;SDS011;52930;51.464;11.764;2022-10-13T12:21:07;9.52;;;4.10;;
66129;SDS011;52930;51.464;11.764;2022-10-13T12:23:38;15.30;;;4.60;;
66129;SDS011;52930;51.464;11.764;2022-10-13T12:26:04;13.57;;;4.70;;
66129;SDS011;52930;51.464;11.764;2022-10-13T12:28:41;11.13;;;4.87;;
66129;SDS011;52930;51.464;11.764;2022-10-13T12:31:44;8.73;;;3.67;;
66129;SDS011;52930;51.464;11.764;2022-10-13T12:36:53;16.88;;;5.38;;
66129;SDS011;52930;51.464;11.764;2022-10-13T12:39:20;9.88;;;4.05;;
66129;SDS011;52930;51.464;11.764;2022-10-13T12:41:46;13.63;;;4.57;;
66129;SDS011;52930;51.464;11.764;2022-10-13T12:44:12;15.68;;;4.93;;
66129;SDS011;52930;51.464;11.764;2022-10-13T12:46:47;14.52;;;4.90;;
66129;SDS011;52930;51.464;11.764;2022-10-13T12:49:20;13.60;;;4.53;;
66129;SDS011;52930;51.464;11.764;2022-10-13T12:52:04;12.00;;;4.47;;
66129;SDS011;52930;51.464;11.764;2022-10-13T12:54:32;11.48;;;4.32;;
66129;SDS011;52930;51.464;11.764;2022-10-13T12:57:00;11.68;;;4.80;;
66129;SDS011;52930;51.464;11.764;2022-10-13T12:59:28;12.30;;;4.18;;
66129;SDS011;52930;51.464;11.764;2022-10-13T13:01:58;9.87;;;4.40;;
66129;SDS011;52930;51.464;11.764;2022-10-13T13:14:36;13.17;;;4.40;;
66129;SDS011;52930;51.464;11.764;2022-10-13T13:19:41;9.63;;;4.28;;
66129;SDS011;52930;51.464;11.764;2022-10-13T13:22:07;9.13;;;3.95;;
66129;SDS011;52930;51.464;11.764;2022-10-13T13:24:33;12.40;;;3.77;;
66129;SDS011;52930;51.464;11.764;2022-10-13T13:27:01;9.75;;;3.60;;
66129;SDS011;52930;51.464;11.764;2022-10-13T13:29:38;10.32;;;4.13;;
66129;SDS011;52930;51.464;11.764;2022-10-13T13:32:04;15.97;;;3.70;;
66129;SDS011;52930;51.464;11.764;2022-10-13T13:34:29;9.97;;;3.93;;
66129;SDS011;52930;51.464;11.764;2022-10-13T13:36:54;11.60;;;4.13;;
66129;SDS011;52930;51.464;11.764;2022-10-13T13:39:20;11.93;;;4.50;;
66129;SDS011;52930;51.464;11.764;2022-10-13T13:41:45;12.55;;;5.07;;
66129;SDS011;52930;51.464;11.764;2022-10-13T13:44:11;13.43;;;4.93;;
66129;SDS011;52930;51.464;11.764;2022-10-13T13:46:36;12.45;;;5.00;;
66129;SDS011;52930;51.464;11.764;2022-10-13T13:49:02;11.60;;;4.50;;
66129;SDS011;52930;51.464;11.764;2022-10-13T13:51:27;14.10;;;4.53;;
66129;SDS011;52930;51.464;11.764;2022-10-13T13:53:53;12.90;;;4.70;;
66129;SDS011;52930;51.464;11.764;2022-10-13T13:56:18;13.70;;;4.40;;
66129;SDS011;52930;51.464;11.764;2022-10-13T13:58:44;14.47;;;4.90;;
66129;SDS011;52930;51.464;11.764;2022-10-13T14:01:11;14.13;;;5.22;;
66129;SDS011;52930;51.464;11.764;2022-10-13T14:03:37;13.32;;;4.63;;
66129;SDS011;52930;51.464;11.764;2022-10-13T14:06:02;11.03;;;4.60;;
66129;SDS011;52930;51.464;11.764;2022-10-13T14:08:31;14.23;;;4.90;;
66129;SDS011;52930;51.464;11.764;2022-10-13T14:10:58;11.15;;;5.05;;
66129;SDS011;52930;51.464;11.764;2022-10-13T14:13:23;12.17;;;5.10;;
66129;SDS011;52930;51.464;11.764;2022-10-13T14:15:58;11.48;;;5.00;;
66129;SDS011;52930;51.464;11.764;2022-10-13T14:18:24;14.20;;;5.17;;
66129;SDS011;52930;51.464;11.764;2022-10-13T14:20:50;12.90;;;4.93;;
66129;SDS011;52930;51.464;11.764;2022-10-13T14:23:15;13.50;;;4.93;;
66129;SDS011;52930;51.464;11.764;2022-10-13T14:25:41;13.67;;;5.37;;
66129;SDS011;52930;51.464;11.764;2022-10-13T14:28:06;15.50;;;6.00;;
66129;SDS011;52930;51.464;11.764;2022-10-13T14:30:31;14.77;;;5.27;;
66129;SDS011;52930;51.464;11.764;2022-10-13T14:32:57;16.37;;;5.40;;
66129;SDS011;52930;51.464;11.764;2022-10-13T14:35:22;12.27;;;4.68;;
66129;SDS011;52930;51.464;11.764;2022-10-13T14:37:48;11.70;;;4.30;;
66129;SDS011;52930;51.464;11.764;2022-10-13T14:40:13;13.17;;;5.00;;
66129;SDS011;52930;51.464;11.764;2022-10-13T14:42:39;13.18;;;4.63;;
66129;SDS011;52930;51.464;11.764;2022-10-13T14:45:06;14.23;;;5.03;;
66129;SDS011;52930;51.464;11.764;2022-10-13T14:47:32;13.77;;;6.07;;
66129;SDS011;52930;51.464;11.764;2022-10-13T14:49:57;16.53;;;5.40;;
66129;SDS011;52930;51.464;11.764;2022-10-13T14:52:25;15.45;;;5.78;;
66129;SDS011;52930;51.464;11.764;2022-10-13T14:54:50;16.90;;;6.43;;
66129;SDS011;52930;51.464;11.764;2022-10-13T14:57:15;11.95;;;5.00;;
66129;SDS011;52930;51.464;11.764;2022-10-13T14:59:41;10.93;;;5.20;;
66129;SDS011;52930;51.464;11.764;2022-10-13T15:02:07;11.73;;;4.60;;
66129;SDS011;52930;51.464;11.764;2022-10-13T15:04:34;11.57;;;4.85;;
66129;SDS011;52930;51.464;11.764;2022-10-13T15:06:59;13.17;;;4.90;;
66129;SDS011;52930;51.464;11.764;2022-10-13T15:09:25;10.68;;;4.55;;
66129;SDS011;52930;51.464;11.764;2022-10-13T15:11:50;14.67;;;4.17;;
66129;SDS011;52930;51.464;11.764;2022-10-13T15:14:15;9.33;;;4.50;;
66129;SDS011;52930;51.464;11.764;2022-10-13T15:16:41;10.83;;;4.40;;
66129;SDS011;52930;51.464;11.764;2022-10-13T15:19:06;8.70;;;3.30;;
66129;SDS011;52930;51.464;11.764;2022-10-13T15:21:31;8.47;;;3.10;;
66129;SDS011;52930;51.464;11.764;2022-10-13T15:23:57;15.80;;;3.88;;
66129;SDS011;52930;51.464;11.764;2022-10-13T15:26:22;10.83;;;3.30;;
66129;SDS011;52930;51.464;11.764;2022-10-13T15:28:49;11.50;;;3.43;;
66129;SDS011;52930;51.464;11.764;2022-10-13T15:31:16;9.90;;;3.75;;
66129;SDS011;52930;51.464;11.764;2022-10-13T15:33:46;9.88;;;4.38;;
66129;SDS011;52930;51.464;11.764;2022-10-13T15:36:13;9.50;;;4.13;;
66129;SDS011;52930;51.464;11.764;2022-10-13T15:38:39;12.00;;;4.87;;
66129;SDS011;52930;51.464;11.764;2022-10-13T15:41:05;12.25;;;4.60;;
66129;SDS011;52930;51.464;11.764;2022-10-13T15:43:31;12.98;;;4.90;;
66129;SDS011;52930;51.464;11.764;2022-10-13T15:46:01;10.60;;;4.60;;
66129;SDS011;52930;51.464;11.764;2022-10-13T15:48:28;8.82;;;4.07;;
66129;SDS011;52930;51.464;11.764;2022-10-13T15:50:54;10.77;;;4.88;;
66129;SDS011;52930;51.464;11.764;2022-10-13T15:53:19;10.97;;;4.30;;
66129;SDS011;52930;51.464;11.764;2022-10-13T15:55:45;12.03;;;4.40;;
66129;SDS011;52930;51.464;11.764;2022-10-13T15:58:11;9.00;;;4.18;;
66129;SDS011;52930;51.464;11.764;2022-10-13T16:00:37;10.00;;;4.57;;
66129;SDS011;52930;51.464;11.764;2022-10-13T16:03:03;11.27;;;5.10;;
66129;SDS011;52930;51.464;11.764;2022-10-13T16:05:29;11.48;;;4.88;;
66129;SDS011;52930;51.464;11.764;2022-10-13T16:07:55;11.70;;;4.60;;
66129;SDS011;52930;51.464;11.764;2022-10-13T16:10:20;12.33;;;4.67;;
66129;SDS011;52930;51.464;11.764;2022-10-13T16:12:45;11.53;;;4.77;;
66129;SDS011;52930;51.464;11.764;2022-10-13T16:15:11;14.60;;;5.00;;
66129;SDS011;52930;51.464;11.764;2022-10-13T16:17:36;10.17;;;4.43;;